Time;durP1;ratioP1;P1;durP2;ratioP2;P2;SDS_P1;SDS_P2;PMS_P1;PMS_P2;Temp;Humidity;BMP_temperature;BMP_pressure;BME280_temperature;BME280_humidity;BME280_pressure;Samples;Min_cycle;Max_cycle;Signal;HPM_P1;HPM_P2
2021/09/10 00:02:05;;;;;;;9.07;8.17;;;12.60;99.90;;;13.00;100.00;95072.00;2158344;56;26202;-61
2021/09/10 00:04:51;;;;;;;9.97;8.97;;;12.60;99.90;;;13.04;100.00;95074.00;2367610;56;26705;-60
2021/09/10 00:10:35;;;;;;;9.77;8.77;;;12.50;99.90;;;13.08;100.00;95056.00;2452461;54;33576;-60
2021/09/10 00:13:21;;;;;;;8.68;7.80;;;12.50;99.90;;;13.07;100.00;95067.00;2218930;55;27262;-60
2021/09/10 00:16:07;;;;;;;10.53;8.43;;;12.40;99.90;;;13.02;100.00;95070.00;2469610;54;26610;-61
2021/09/10 00:21:50;;;;;;;9.00;8.10;;;12.30;99.90;;;12.96;100.00;95057.00;2421880;54;34404;-60
2021/09/10 00:24:37;;;;;;;9.40;8.40;;;12.30;99.90;;;12.82;100.00;95069.00;2210579;55;26587;-61
2021/09/10 00:27:23;;;;;;;10.38;8.48;;;12.20;99.90;;;12.76;100.00;95063.00;2415255;55;26659;-60
2021/09/10 00:33:08;;;;;;;8.95;7.65;;;12.20;99.90;;;12.83;100.00;95056.00;2458833;53;33577;-60
2021/09/10 00:35:54;;;;;;;10.40;8.20;;;12.10;99.90;;;12.62;100.00;95071.00;2245419;54;27004;-61
2021/09/10 00:38:41;;;;;;;9.43;7.53;;;12.10;99.90;;;12.63;100.00;95078.00;2482014;54;27209;-61
2021/09/10 00:41:27;;;;;;;9.77;8.48;;;12.00;99.90;;;12.58;100.00;95078.00;2267956;55;26642;-62
2021/09/10 00:44:13;;;;;;;8.97;8.07;;;12.20;99.90;;;12.71;100.00;95079.00;2502010;54;26678;-61
2021/09/10 00:47:00;;;;;;;9.17;8.27;;;12.20;99.90;;;12.86;100.00;95082.00;2268305;55;27167;-60
2021/09/10 00:49:46;;;;;;;8.40;7.60;;;12.40;99.90;;;12.97;100.00;95088.00;2290268;54;27135;-61
2021/09/10 00:52:33;;;;;;;9.57;7.82;;;12.40;99.90;;;13.05;100.00;95075.00;2534247;53;26788;-60
2021/09/10 00:55:26;;;;;;;8.73;7.47;;;12.50;99.90;;;13.12;100.00;95075.00;2294393;54;26707;-60
2021/09/10 00:58:12;;;;;;;8.93;7.47;;;12.50;99.90;;;13.01;100.00;95079.00;2294996;54;26753;-61
2021/09/10 01:01:00;;;;;;;9.70;7.60;;;12.50;99.90;;;13.04;100.00;95083.00;2294429;54;27279;-61
2021/09/10 01:03:46;;;;;;;9.40;7.53;;;12.50;99.90;;;12.99;100.00;95084.00;2534611;53;26660;-61
2021/09/10 01:06:33;;;;;;;8.83;7.90;;;12.50;99.90;;;12.88;100.00;95080.00;2294041;54;26085;-62
2021/09/10 01:09:21;;;;;;;9.07;8.18;;;12.40;99.90;;;12.93;100.00;95087.00;2533907;53;26675;-60
2021/09/10 01:12:09;;;;;;;9.07;8.03;;;12.40;99.90;;;12.95;100.00;95085.00;2294633;54;26832;-61
2021/09/10 01:14:56;;;;;;;9.27;8.17;;;12.30;99.90;;;12.83;100.00;95085.00;2534918;53;26748;-61
2021/09/10 01:17:43;;;;;;;9.33;8.03;;;12.20;99.90;;;12.79;100.00;95084.00;2291332;54;26985;-61
2021/09/10 01:20:29;;;;;;;8.70;7.90;;;12.20;99.90;;;12.74;100.00;95089.00;2533482;53;26125;-61
2021/09/10 01:23:16;;;;;;;10.00;7.95;;;12.20;99.90;;;12.77;100.00;95088.00;2293678;54;26873;-61
2021/09/10 01:26:02;;;;;;;10.77;8.63;;;12.30;99.90;;;12.89;100.00;95092.00;2534077;53;26143;-60
2021/09/10 01:28:49;;;;;;;9.70;8.07;;;12.30;99.90;;;12.95;100.00;95096.00;2287218;54;26833;-62
2021/09/10 01:34:32;;;;;;;8.07;7.27;;;12.30;99.90;;;12.97;100.00;95078.00;2419550;55;33198;-61
2021/09/10 01:37:19;;;;;;;8.60;7.53;;;12.30;99.90;;;12.84;100.00;95084.00;2151636;55;27275;-61
2021/09/10 01:43:01;;;;;;;9.90;7.77;;;12.30;99.90;;;13.03;100.00;95071.00;2486672;53;33990;-61
2021/09/10 01:45:48;;;;;;;10.98;8.40;;;12.40;99.90;;;12.94;100.00;95078.00;2425043;53;26785;-60
2021/09/10 01:51:34;;;;;;;8.48;7.68;;;12.50;99.90;;;13.16;100.00;95072.00;2424781;54;35010;-61
2021/09/10 01:54:20;;;;;;;8.53;7.40;;;12.40;99.90;;;12.99;100.00;95079.00;2186459;56;26614;-61
2021/09/10 01:57:07;;;;;;;9.53;7.33;;;12.30;99.90;;;12.77;100.00;95078.00;2402822;56;26586;-61
2021/09/10 01:59:53;;;;;;;9.07;7.53;;;12.30;99.90;;;12.71;100.00;95079.00;2186538;56;27300;-61
2021/09/10 02:02:40;;;;;;;9.07;8.07;;;12.20;99.90;;;12.74;100.00;95080.00;2186438;56;26851;-60
2021/09/10 02:05:26;;;;;;;8.53;7.67;;;12.30;99.90;;;12.77;100.00;95074.00;2399263;55;26121;-61
2021/09/10 02:08:12;;;;;;;8.17;7.37;;;12.30;99.90;;;12.85;100.00;95080.00;2357080;56;26337;-61
2021/09/10 02:10:59;;;;;;;9.13;7.93;;;12.40;99.90;;;12.98;100.00;95079.00;2143964;56;26596;-61
2021/09/10 02:13:46;;;;;;;9.90;8.15;;;12.50;99.90;;;13.04;100.00;95086.00;2154189;56;27411;-60
2021/09/10 02:19:28;;;;;;;8.95;8.05;;;12.50;99.90;;;13.00;100.00;95066.00;2405826;54;34670;-60
2021/09/10 02:22:14;;;;;;;9.03;7.80;;;12.30;99.90;;;12.82;100.00;95080.00;2161917;57;26755;-60
2021/09/10 02:25:01;;;;;;;8.68;7.78;;;12.30;99.90;;;12.76;100.00;95073.00;2395225;56;27228;-60
2021/09/10 02:27:48;;;;;;;8.50;7.50;;;12.20;99.90;;;12.76;100.00;95074.00;2178518;56;26143;-61
2021/09/10 02:30:34;;;;;;;8.32;7.53;;;12.10;99.90;;;12.67;100.00;95066.00;2396530;55;26867;-61
2021/09/10 02:33:21;;;;;;;10.53;7.63;;;12.00;99.90;;;12.57;100.00;95066.00;2179785;56;26637;-60
2021/09/10 02:36:07;;;;;;;10.57;7.80;;;11.90;99.90;;;12.40;100.00;95073.00;2396929;56;26688;-60
2021/09/10 02:38:54;;;;;;;8.13;7.43;;;11.80;99.90;;;12.33;100.00;95070.00;2178285;56;26869;-61
2021/09/10 02:44:38;;;;;;;8.87;7.60;;;11.90;99.90;;;12.43;100.00;95062.00;2346743;56;33337;-61
2021/09/10 02:47:24;;;;;;;8.77;7.67;;;11.90;99.90;;;12.44;100.00;95071.00;2127225;58;26700;-60
2021/09/10 02:50:11;;;;;;;9.73;7.20;;;11.80;99.90;;;12.25;100.00;95064.00;2102022;58;27008;-61
2021/09/10 02:52:58;;;;;;;8.77;7.87;;;11.70;99.90;;;12.08;100.00;95073.00;2101768;58;26783;-61
2021/09/10 02:55:44;;;;;;;9.03;8.07;;;11.60;99.90;;;11.98;100.00;95068.00;2101569;58;26972;-60
2021/09/10 02:58:30;;;;;;;10.33;8.13;;;11.40;99.90;;;11.83;100.00;95070.00;2301957;57;27376;-60
2021/09/10 03:01:17;;;;;;;8.40;7.60;;;11.40;99.90;;;11.83;100.00;95070.00;2282270;58;26773;-61
2021/09/10 03:04:04;;;;;;;8.33;7.53;;;11.40;99.90;;;11.89;100.00;95069.00;2076417;59;27447;-61
2021/09/10 03:06:50;;;;;;;8.38;7.43;;;11.50;99.90;;;12.00;100.00;95063.00;2076439;59;26196;-61
2021/09/10 03:09:37;;;;;;;9.17;7.83;;;11.40;99.90;;;11.98;100.00;95068.00;2077021;58;26689;-60
2021/09/10 03:12:24;;;;;;;9.27;7.10;;;11.40;99.90;;;11.97;100.00;95069.00;2273213;58;26885;-60
2021/09/10 03:15:13;;;;;;;8.70;7.50;;;11.30;99.90;;;11.91;100.00;95070.00;2077884;58;27220;-61
2021/09/10 03:17:59;;;;;;;9.77;7.50;;;11.30;99.90;;;11.87;100.00;95069.00;2076651;58;27716;-63
2021/09/10 03:20:46;;;;;;;8.43;7.57;;;11.20;99.90;;;11.78;100.00;95064.00;2075747;58;26833;-60
2021/09/10 03:26:30;;;;;;;8.27;7.47;;;11.30;99.90;;;11.98;100.00;95054.00;2374789;55;34326;-61
2021/09/10 03:29:16;;;;;;;8.67;7.50;;;11.30;99.90;;;11.83;100.00;95064.00;2209388;56;26694;-60
2021/09/10 03:32:04;;;;;;;8.07;7.27;;;11.20;99.90;;;11.72;100.00;95058.00;2453227;55;26976;-60
2021/09/10 03:34:50;;;;;;;9.23;7.27;;;11.10;99.90;;;11.61;100.00;95058.00;2228420;56;27422;-60
2021/09/10 03:37:36;;;;;;;8.33;7.53;;;10.90;99.90;;;11.58;100.00;95055.00;2455255;55;26776;-60
2021/09/10 03:40:24;;;;;;;9.67;7.50;;;10.90;99.90;;;11.53;100.00;95060.00;2230362;56;27239;-60
2021/09/10 03:43:11;;;;;;;8.17;6.80;;;11.00;99.90;;;11.50;100.00;95051.00;2228451;56;26667;-60
2021/09/10 03:48:55;;;;;;;8.63;7.70;;;10.80;99.90;;;11.44;100.00;95049.00;2400581;55;34669;-60
2021/09/10 03:51:41;;;;;;;9.23;8.00;;;10.80;99.90;;;11.28;100.00;95057.00;2132035;57;26648;-61
2021/09/10 03:54:27;;;;;;;12.73;8.43;;;10.80;99.90;;;11.30;100.00;95049.00;2331761;57;26842;-61
2021/09/10 04:00:14;;;;;;;10.90;7.73;;;10.70;99.90;;;11.40;100.00;95043.00;2379768;55;35333;-60
2021/09/10 04:03:03;;;;;;;11.43;8.23;;;10.80;99.90;;;11.32;100.00;95056.00;2170341;56;27075;-60
2021/09/10 04:05:50;;;;;;;10.83;8.43;;;10.80;99.90;;;11.34;100.00;95050.00;2180620;56;26645;-60
2021/09/10 04:14:29;;;;;;;9.67;8.67;;;10.60;99.90;;;11.14;100.00;95034.00;2447821;54;33819;-60
2021/09/10 04:17:15;;;;;;;8.47;7.57;;;10.60;99.90;;;11.00;100.00;95048.00;2233548;54;26114;-61
2021/09/10 04:20:02;;;;;;;9.23;8.30;;;10.60;99.90;;;11.09;100.00;95056.00;2239487;55;26827;-60
2021/09/10 04:22:48;;;;;;;9.00;8.10;;;10.60;99.90;;;11.12;100.00;95062.00;2237117;53;26517;-61
2021/09/10 04:25:35;;;;;;;11.63;8.63;;;10.50;99.90;;;11.00;100.00;95057.00;2241780;54;26771;-61
2021/09/10 04:28:21;;;;;;;8.87;7.97;;;10.40;99.90;;;10.95;100.00;95058.00;2242088;54;26646;-60
2021/09/10 04:34:03;;;;;;;9.37;7.77;;;10.50;99.90;;;11.06;100.00;95050.00;2343128;55;34250;-60
2021/09/10 04:39:47;;;;;;;9.43;7.73;;;10.30;99.90;;;10.86;100.00;95041.00;2437042;54;33337;-61
2021/09/10 04:42:34;;;;;;;9.23;7.93;;;10.30;99.90;;;10.98;100.00;95046.00;2444408;54;27345;-60
2021/09/10 04:45:22;;;;;;;10.07;7.57;;;10.30;99.90;;;10.81;100.00;95056.00;2239928;55;26586;-61
2021/09/10 04:48:08;;;;;;;8.97;7.60;;;10.20;99.90;;;10.87;100.00;95048.00;2241788;54;27575;-60
2021/09/10 04:50:55;;;;;;;10.10;7.10;;;10.40;99.90;;;10.97;100.00;95065.00;2502354;53;26925;-61
2021/09/10 04:53:41;;;;;;;9.03;7.30;;;10.30;99.90;;;10.91;100.00;95060.00;2265264;55;27088;-60
2021/09/10 04:56:28;;;;;;;7.47;6.67;;;10.30;99.90;;;10.88;100.00;95058.00;2502575;54;26945;-61
2021/09/10 04:59:14;;;;;;;8.37;6.57;;;10.30;99.90;;;11.04;100.00;95057.00;2267458;55;26122;-60
2021/09/10 05:02:01;;;;;;;7.97;6.87;;;10.40;99.90;;;11.09;100.00;95055.00;2501312;54;27696;-61
2021/09/10 05:07:44;;;;;;;7.80;7.00;;;10.30;99.90;;;10.98;100.00;95038.00;2477444;54;34566;-62
2021/09/10 05:10:31;;;;;;;7.63;6.63;;;10.30;99.90;;;10.95;100.00;95061.00;2234931;55;26609;-60
2021/09/10 05:13:17;;;;;;;7.83;6.67;;;10.30;99.90;;;10.95;100.00;95056.00;2440398;54;26827;-61
2021/09/10 05:19:02;;;;;;;9.97;7.60;;;10.30;99.90;;;10.98;100.00;95055.00;2442461;53;34346;-61
2021/09/10 05:21:49;;;;;;;11.40;7.47;;;10.30;99.90;;;10.93;100.00;95069.00;2207608;56;26199;-61
2021/09/10 05:24:35;;;;;;;8.10;7.13;;;10.30;99.90;;;11.03;100.00;95070.00;2211344;56;26614;-61
2021/09/10 05:27:22;;;;;;;8.33;7.30;;;10.50;99.90;;;11.13;100.00;95075.00;2208852;56;26814;-61
2021/09/10 05:30:10;;;;;;;8.27;6.97;;;10.60;99.90;;;11.22;100.00;95076.00;2209954;56;26180;-61
2021/09/10 05:32:56;;;;;;;8.03;7.00;;;10.70;99.90;;;11.32;100.00;95079.00;2432498;55;27217;-61
2021/09/10 05:35:42;;;;;;;8.97;6.70;;;10.80;99.90;;;11.45;100.00;95074.00;2214463;56;27341;-61
2021/09/10 05:38:29;;;;;;;8.30;7.40;;;10.80;99.90;;;11.37;100.00;95081.00;2435571;55;26528;-61
2021/09/10 05:41:15;;;;;;;9.03;7.03;;;10.80;99.90;;;11.39;100.00;95078.00;2434905;55;26711;-62
2021/09/10 05:46:57;;;;;;;7.83;7.03;;;10.80;99.90;;;11.69;100.00;95063.00;2392239;55;34174;-61
2021/09/10 05:49:44;;;;;;;9.07;7.57;;;11.00;99.90;;;11.60;100.00;95082.00;2188316;56;26578;-60
2021/09/10 05:52:30;;;;;;;8.27;6.47;;;11.10;99.90;;;11.81;100.00;95082.00;2192506;56;26676;-62
2021/09/10 05:55:17;;;;;;;9.27;7.50;;;11.20;99.90;;;11.88;100.00;95085.00;2411131;56;26748;-61
2021/09/10 05:58:03;;;;;;;7.87;6.57;;;11.30;99.90;;;12.02;100.00;95082.00;2190761;56;26660;-60
2021/09/10 06:00:49;;;;;;;8.00;7.20;;;11.40;99.90;;;12.15;100.00;95080.00;2411262;56;26636;-61
2021/09/10 06:03:36;;;;;;;9.20;7.43;;;11.60;99.90;;;12.34;100.00;95079.00;2192508;56;26738;-61
2021/09/10 06:06:22;;;;;;;8.60;7.28;;;11.80;99.90;;;12.53;100.00;95078.00;2413796;56;26737;-61
2021/09/10 06:12:07;;;;;;;9.15;8.20;;;12.10;99.90;;;12.97;100.00;95069.00;2366487;55;34057;-61
2021/09/10 06:14:54;;;;;;;9.07;8.18;;;12.30;99.90;;;12.94;100.00;95082.00;2142813;57;27392;-61
2021/09/10 06:17:41;;;;;;;9.77;8.70;;;12.40;99.90;;;13.04;100.00;95073.00;2333507;57;26175;-62
2021/09/10 06:20:27;;;;;;;11.05;9.15;;;12.60;99.90;;;13.22;100.00;95074.00;2127716;58;27218;-61
2021/09/10 06:23:14;;;;;;;10.98;9.13;;;12.70;99.90;;;13.42;100.00;95085.00;2338693;57;26853;-61
2021/09/10 06:28:59;;;;;;;12.00;9.38;;;13.00;99.90;;;13.91;100.00;95072.00;2433338;54;34309;-61
2021/09/10 06:31:49;;;;;;;12.13;9.60;;;13.20;99.90;;;13.96;100.00;95085.00;2191668;55;27036;-61
2021/09/10 06:34:35;;;;;;;10.18;9.18;;;13.40;99.90;;;14.12;100.00;95087.00;2407672;55;27276;-62
2021/09/10 06:37:23;;;;;;;10.50;9.40;;;13.50;99.90;;;14.30;100.00;95085.00;2190533;56;26182;-61
2021/09/10 06:40:13;;;;;;;9.82;8.75;;;14.00;99.90;;;15.39;100.00;95086.00;2397828;55;26631;-62
2021/09/10 06:43:00;;;;;;;8.07;7.22;;;15.50;99.90;;;17.55;100.00;95074.00;2184403;55;27107;-61
2021/09/10 06:45:47;;;;;;;9.00;7.20;;;17.20;99.90;;;19.89;100.00;95053.00;2406808;55;26585;-62
2021/09/10 06:48:33;;;;;;;8.73;6.60;;;19.00;99.90;;;22.16;100.00;95052.00;2174018;55;26784;-62
2021/09/10 06:54:15;;;;;;;6.72;6.03;;;20.20;99.90;;;24.60;100.00;95060.00;2368743;56;34455;-62
2021/09/10 06:57:02;;;;;;;8.65;6.05;;;22.70;99.90;;;25.48;100.00;95059.00;2130412;58;27311;-62
2021/09/10 06:59:48;;;;;;;9.90;5.97;;;23.30;99.90;;;25.92;100.00;95059.00;2118345;58;27237;-61
2021/09/10 07:02:35;;;;;;;6.45;5.60;;;23.40;99.90;;;25.95;100.00;95054.00;2314281;57;26763;-61
2021/09/10 07:05:22;;;;;;;8.80;5.97;;;23.80;99.90;;;25.95;100.00;95051.00;2120051;58;26909;-62
2021/09/10 07:08:08;;;;;;;6.50;5.68;;;23.90;99.90;;;25.89;100.00;95055.00;2314273;57;26788;-61
2021/09/10 07:10:55;;;;;;;5.93;5.32;;;24.00;99.90;;;26.17;100.00;95048.00;2108700;58;26711;-61
2021/09/10 07:13:41;;;;;;;7.32;4.82;;;24.20;99.90;;;27.03;100.00;95045.00;2314814;57;27081;-61
2021/09/10 07:19:24;;;;;;;5.90;5.40;;;25.20;99.90;;;27.97;100.00;95048.00;2420931;54;33595;-61
2021/09/10 07:22:10;;;;;;;6.40;5.32;;;24.80;99.90;;;26.57;100.00;95053.00;2461414;55;26186;-61
2021/09/10 07:24:57;;;;;;;6.60;5.18;;;24.60;99.90;;;26.44;100.00;95051.00;2232825;56;27042;-61
2021/09/10 07:27:43;;;;;;;6.37;5.40;;;24.70;99.90;;;27.26;100.00;95047.00;2234588;56;25673;-61
2021/09/10 07:33:26;;;;;;;7.28;5.05;;;25.00;99.90;;;28.15;100.00;95046.00;2400547;55;34727;-61
2021/09/10 07:36:13;;;;;;;6.25;5.00;;;26.30;99.90;;;29.19;99.88;95046.00;2379710;55;26900;-61
2021/09/10 07:41:55;;;;;;;6.03;5.10;;;26.90;99.90;;;29.64;95.89;95033.00;2377645;55;34581;-61
2021/09/10 07:44:42;;;;;;;5.87;5.03;;;27.10;99.90;;;29.88;93.31;95033.00;2331324;56;27464;-61
2021/09/10 07:47:28;;;;;;;7.03;5.28;;;27.20;99.90;;;29.96;93.78;95042.00;2131678;58;25567;-61
2021/09/10 07:53:12;;;;;;;8.43;5.22;;;26.90;99.90;;;29.64;87.97;95052.00;2406171;54;33912;-61
2021/09/10 07:58:54;;;;;;;5.43;4.93;;;27.00;99.90;;;29.68;86.33;95045.00;2404816;55;32633;-60
2021/09/10 08:01:41;;;;;;;5.35;4.57;;;27.10;99.90;;;29.83;88.67;95042.00;2195302;55;25663;-60
2021/09/10 08:04:28;;;;;;;5.35;4.85;;;27.60;99.90;;;29.97;83.90;95045.00;2210406;56;27198;-61
2021/09/10 08:07:14;;;;;;;5.40;4.87;;;26.60;99.90;;;28.76;89.00;95049.00;2433497;55;26068;-60
2021/09/10 08:10:01;;;;;;;5.40;4.90;;;26.60;99.90;;;29.42;86.57;95044.00;2206769;56;26752;-61
2021/09/10 08:12:49;;;;;;;5.53;5.03;;;27.10;99.90;;;29.92;81.96;95056.00;2426181;55;27365;-61
2021/09/10 08:15:35;;;;;;;5.62;4.70;;;27.10;99.90;;;29.82;84.40;95048.00;2205926;56;25739;-60
2021/09/10 08:18:23;;;;;;;6.85;4.85;;;27.20;99.90;;;30.10;82.68;95046.00;2431069;55;26340;-60
2021/09/10 08:24:09;;;;;;;5.40;4.90;;;28.40;99.90;;;31.81;76.63;95051.00;2360661;56;33358;-60
2021/09/10 08:26:56;;;;;;;5.03;4.60;;;28.80;99.90;;;31.77;68.91;95067.00;2297103;57;25745;-60
2021/09/10 08:32:40;;;;;;;5.30;4.80;;;28.70;99.90;;;31.67;77.74;95058.00;2447768;54;32509;-60
2021/09/10 08:38:24;;;;;;;5.68;5.18;;;29.70;99.90;;;33.43;66.81;95059.00;2335159;56;32975;-58
2021/09/10 08:41:16;;;;;;;4.87;4.47;;;30.00;99.90;;;33.65;64.07;95066.00;2150309;58;25116;-59
2021/09/10 08:44:06;;;;;;;6.55;5.20;;;30.80;99.90;;;34.64;60.22;95072.00;2367197;57;25612;-59
2021/09/10 08:46:52;;;;;;;5.80;4.57;;;30.30;99.90;;;33.45;57.25;95064.00;2367798;57;25140;-58
2021/09/10 08:49:40;;;;;;;5.22;4.72;;;29.50;99.90;;;32.76;58.80;95075.00;2391044;56;25754;-58
2021/09/10 08:52:27;;;;;;;6.10;5.30;;;29.00;99.90;;;32.14;60.80;95068.00;2180349;58;25516;-59
2021/09/10 08:55:16;;;;;;;5.90;5.40;;;29.00;99.90;;;32.36;64.60;95070.00;2175158;58;26117;-59
2021/09/10 08:58:02;;;;;;;5.75;4.75;;;29.40;99.90;;;33.80;55.04;95072.00;2169123;56;26120;-58
2021/09/10 09:00:49;;;;;;;5.22;4.82;;;30.00;99.90;;;33.97;57.32;95065.00;2177960;57;25578;-58
2021/09/10 09:03:35;;;;;;;6.15;5.55;;;30.20;99.90;;;34.26;56.02;95071.00;2179333;58;26310;-58
2021/09/10 09:09:44;;;;;;;8.55;5.55;;;30.70;99.90;;;34.88;49.44;95052.00;2541623;52;32855;-60
2021/09/10 09:12:32;;;;;;;5.55;4.97;;;29.90;99.90;;;32.93;56.12;95053.00;2473466;53;25531;-58
2021/09/10 09:15:19;;;;;;;5.30;4.80;;;29.70;99.90;;;33.58;59.01;95050.00;2239020;53;25876;-59
2021/09/10 09:18:05;;;;;;;4.90;4.50;;;29.90;99.90;;;33.63;64.13;95048.00;2470033;52;25639;-58
2021/09/10 09:20:52;;;;;;;5.47;4.95;;;30.70;99.90;;;34.56;54.56;95056.00;2242777;53;25623;-58
2021/09/10 09:23:39;;;;;;;5.90;5.07;;;31.00;99.90;;;34.80;54.73;95059.00;2464751;53;26199;-59
2021/09/10 09:26:28;;;;;;;5.90;5.32;;;31.10;99.90;;;35.00;48.58;95057.00;2261728;53;25961;-58
2021/09/10 09:29:17;;;;;;;6.72;5.53;;;31.20;99.90;;;35.30;47.80;95048.00;2517734;53;25180;-58
2021/09/10 09:32:07;;;;;;;6.82;5.25;;;31.20;99.90;;;34.84;48.53;95049.00;2285602;54;25637;-58
2021/09/10 09:34:53;;;;;;;6.25;5.62;;;31.30;99.90;;;34.70;46.12;95045.00;2521660;53;26720;-58
2021/09/10 09:37:41;;;;;;;5.37;4.87;;;31.20;99.90;;;33.94;49.66;95039.00;2283363;53;25741;-58
2021/09/10 09:43:31;;;;;;;5.85;5.25;;;31.40;99.90;;;35.17;47.86;95038.00;2404041;55;32217;-58
2021/09/10 09:46:20;;;;;;;5.53;4.68;;;31.50;99.90;;;35.23;47.89;95042.00;2170283;56;26108;-58
2021/09/10 09:49:14;;;;;;;5.60;5.07;;;31.60;99.90;;;35.56;49.73;95048.00;2367588;55;25981;-58
2021/09/10 09:55:01;;;;;;;5.82;5.22;;;32.80;99.90;;;37.67;41.07;95040.00;2441869;54;33730;-58
2021/09/10 09:57:47;;;;;;;5.95;4.82;;;32.10;99.90;;;36.32;41.61;95034.00;2201902;55;25592;-58
2021/09/10 10:00:38;;;;;;;5.50;5.00;;;32.20;99.90;;;36.36;44.29;95035.00;2210414;55;25174;-58
2021/09/10 10:03:24;;;;;;;5.40;4.90;;;32.00;99.90;;;36.98;41.28;95035.00;2433194;55;26179;-59
2021/09/10 10:09:14;;;;;;;5.80;5.30;;;31.90;99.90;;;37.71;42.11;95027.00;2374066;55;33226;-59
2021/09/10 10:12:02;;;;;;;6.15;5.55;;;32.40;99.90;;;35.67;42.03;95027.00;2132002;56;26234;-58
2021/09/10 10:14:49;;;;;;;6.03;5.50;;;30.70;99.90;;;34.24;45.42;95029.00;2349237;56;25892;-59
2021/09/10 10:17:38;;;;;;;5.40;5.00;;;31.50;99.90;;;35.57;43.49;95033.00;2163567;56;25723;-58
2021/09/10 10:23:57;;;;;;;6.68;5.22;;;32.40;99.90;;;36.22;43.21;95030.00;2440056;55;33081;-58
2021/09/10 10:26:43;;;;;;;9.60;5.40;;;32.10;99.90;;;35.41;43.54;95024.00;2445021;54;26350;-58
2021/09/10 10:29:38;;;;;;;5.72;5.12;;;32.30;99.90;;;35.73;43.36;95025.00;2210140;54;25824;-59
2021/09/10 10:35:43;;;;;;;5.70;5.10;;;31.40;99.90;;;35.86;41.77;95024.00;2367367;55;32789;-60
2021/09/10 10:41:27;;;;;;;5.53;4.95;;;31.70;99.90;;;36.18;43.51;95023.00;2379049;55;34271;-60
2021/09/10 10:45:05;;;;;;;6.00;5.40;;;31.70;99.90;;;35.72;41.13;95022.00;2385359;55;25863;-60
2021/09/10 10:47:51;;;;;;;6.00;5.40;;;32.30;99.90;;;36.16;39.71;95021.00;2361309;56;26200;-58
2021/09/10 10:50:38;;;;;;;6.37;5.43;;;31.90;99.90;;;35.65;40.36;95010.00;2126246;56;25868;-58
2021/09/10 10:53:24;;;;;;;5.87;5.32;;;32.10;99.90;;;36.94;37.63;95007.00;2334088;57;25543;-58
2021/09/10 10:59:43;;;;;;;5.47;5.00;;;32.50;99.90;;;37.47;41.04;95009.00;2392622;55;33004;-60
2021/09/10 11:02:35;;;;;;;6.30;5.70;;;33.30;99.90;;;38.80;40.37;95010.00;2371344;56;25832;-58
2021/09/10 11:05:26;;;;;;;6.18;5.57;;;34.00;99.90;;;37.59;36.61;94992.00;2169339;56;26358;-59
2021/09/10 11:08:17;;;;;;;5.47;4.97;;;33.50;99.90;;;37.07;37.59;94997.00;2401520;55;25696;-58
2021/09/10 11:11:04;;;;;;;6.25;5.65;;;32.50;99.90;;;36.34;38.56;94984.00;2183823;57;25477;-58
2021/09/10 11:13:52;;;;;;;5.72;5.22;;;31.90;99.90;;;35.21;41.35;94990.00;2398134;55;25646;-58
2021/09/10 11:16:39;;;;;;;6.47;5.57;;;31.80;99.90;;;35.34;41.92;94980.00;2214109;56;25966;-58
2021/09/10 11:19:26;;;;;;;8.10;5.72;;;32.60;99.90;;;36.29;39.21;94972.00;2210926;56;25111;-58
2021/09/10 11:22:12;;;;;;;6.43;5.50;;;32.20;99.90;;;36.15;44.52;94975.00;2426600;55;25044;-59
2021/09/10 11:28:12;;;;;;;6.75;5.50;;;32.00;99.90;;;35.91;53.90;94973.00;2367524;55;32452;-61
2021/09/10 11:30:59;;;;;;;6.93;5.65;;;33.00;99.90;;;35.23;41.05;94977.00;2136238;57;26301;-60
2021/09/10 11:36:44;;;;;;;7.22;5.57;;;32.70;99.90;;;34.76;44.05;94974.00;2381080;55;34810;-60
2021/09/10 11:42:34;;;;;;;5.50;5.00;;;32.80;99.90;;;34.75;52.83;94969.00;2408622;54;32992;-60
2021/09/10 11:45:21;;;;;;;5.55;5.10;;;33.00;99.90;;;34.69;52.60;94976.00;2167749;56;26114;-58
2021/09/10 11:48:09;;;;;;;6.15;5.25;;;33.00;99.90;;;34.19;50.09;94980.00;2152043;56;26350;-58
2021/09/10 11:50:59;;;;;;;5.20;4.80;;;33.10;99.90;;;33.78;52.69;94968.00;2380340;56;25434;-58
2021/09/10 11:53:56;;;;;;;7.30;5.45;;;32.80;99.90;;;33.65;58.96;94968.00;2180091;56;25461;-58
2021/09/10 11:56:45;;;;;;;6.68;5.50;;;32.30;99.90;;;33.10;51.81;94966.00;2179861;56;25682;-58
2021/09/10 11:59:32;;;;;;;6.12;5.53;;;32.20;99.90;;;32.51;57.75;94956.00;2398984;56;25566;-59
2021/09/10 12:02:19;;;;;;;5.90;5.40;;;31.90;99.90;;;31.99;56.56;94957.00;2182156;56;26988;-58
2021/09/10 12:05:12;;;;;;;5.97;5.47;;;31.50;99.90;;;31.22;61.96;94956.00;2429949;55;25826;-58
2021/09/10 12:07:59;;;;;;;5.80;5.30;;;30.30;99.90;;;30.03;58.50;94947.00;2211881;55;26716;-58
2021/09/10 12:10:45;;;;;;;6.00;5.50;;;29.80;99.90;;;29.78;62.98;94953.00;2214488;55;26793;-58
2021/09/10 12:16:31;;;;;;;8.18;5.78;;;28.60;99.90;;;28.63;70.84;94955.00;2358443;57;34093;-60
2021/09/10 12:19:18;;;;;;;6.68;4.87;;;28.20;99.90;;;28.29;66.53;94956.00;2339426;58;26909;-60
2021/09/10 12:22:52;;;;;;;5.57;5.07;;;28.10;99.90;;;28.30;73.10;94955.00;2134859;59;26879;-60
2021/09/10 12:28:40;;;;;;;5.18;4.68;;;27.50;99.90;;;27.88;78.70;94946.00;2474816;54;34029;-60
2021/09/10 12:31:26;;;;;;;5.87;5.37;;;27.20;99.90;;;27.54;77.00;94943.00;2194194;56;26678;-60
2021/09/10 12:34:13;;;;;;;6.93;5.07;;;27.40;99.90;;;27.88;86.78;94941.00;2408404;56;26332;-60
2021/09/10 12:36:59;;;;;;;6.35;5.55;;;27.60;99.90;;;28.08;77.83;94947.00;2189056;56;25923;-60
2021/09/10 12:39:45;;;;;;;5.62;5.12;;;27.70;99.90;;;28.35;76.98;94944.00;2407516;55;25655;-60
2021/09/10 12:42:32;;;;;;;5.90;5.30;;;28.20;99.90;;;28.93;79.34;94935.00;2200791;56;27257;-60
2021/09/10 12:45:18;;;;;;;6.07;5.37;;;28.60;99.90;;;29.28;75.96;94938.00;2432776;55;26569;-59
2021/09/10 12:48:06;;;;;;;5.70;5.20;;;28.20;99.90;;;28.52;79.57;94938.00;2429732;55;25136;-61
2021/09/10 12:50:52;;;;;;;5.87;5.37;;;28.10;99.90;;;28.50;83.79;94932.00;2201093;56;27349;-61
2021/09/10 12:53:39;;;;;;;9.32;5.60;;;28.20;99.90;;;28.54;74.07;94926.00;2436750;55;26173;-60
2021/09/10 12:56:25;;;;;;;6.05;5.55;;;27.80;99.90;;;28.08;79.84;94925.00;2215113;56;27557;-61
2021/09/10 12:59:12;;;;;;;7.20;5.35;;;27.40;99.90;;;27.61;77.51;94930.00;2439383;55;26622;-59
2021/09/10 13:01:58;;;;;;;5.00;4.60;;;27.20;99.90;;;27.60;75.61;94932.00;2206875;55;26664;-60
2021/09/10 13:04:45;;;;;;;5.57;4.93;;;27.60;99.90;;;28.15;77.35;94923.00;2429460;55;27134;-60
2021/09/10 13:10:29;;;;;;;5.82;5.32;;;27.70;99.90;;;28.16;66.72;94918.00;2392983;55;34360;-60
2021/09/10 13:13:17;;;;;;;5.78;4.82;;;27.60;99.90;;;28.01;73.34;94925.00;2143051;56;26798;-59
2021/09/10 13:19:00;;;;;;;5.45;4.95;;;27.40;99.90;;;28.29;88.03;94916.00;2353924;55;34486;-61
2021/09/10 13:21:47;;;;;;;5.85;5.32;;;28.00;99.90;;;28.75;86.98;94915.00;2140234;57;26113;-59
2021/09/10 13:27:29;;;;;;;6.20;5.60;;;28.30;99.90;;;29.34;83.10;94910.00;2327887;57;33845;-61
2021/09/10 13:33:14;;;;;;;6.45;5.85;;;28.80;99.90;;;29.55;83.38;94916.00;2483360;53;34256;-60
2021/09/10 13:36:00;;;;;;;8.63;5.70;;;28.60;99.90;;;29.29;83.63;94918.00;2238412;54;27007;-60
2021/09/10 13:38:46;;;;;;;6.22;5.65;;;28.50;99.90;;;29.21;80.08;94921.00;2466868;53;26314;-60
2021/09/10 13:41:33;;;;;;;6.30;5.70;;;28.30;99.90;;;28.92;82.15;94913.00;2463952;54;25640;-61
2021/09/10 13:44:20;;;;;;;7.30;5.60;;;28.00;99.90;;;28.67;84.58;94908.00;2238017;54;26725;-59
2021/09/10 13:47:06;;;;;;;6.35;5.75;;;27.90;99.90;;;28.47;89.84;94906.00;2462397;54;26767;-59
2021/09/10 13:49:53;;;;;;;6.28;5.15;;;28.10;99.90;;;28.94;92.72;94910.00;2213511;54;26695;-60
2021/09/10 13:52:39;;;;;;;5.82;5.28;;;28.20;99.90;;;29.10;89.09;94903.00;2424399;54;27489;-59
2021/09/10 13:55:26;;;;;;;5.68;5.20;;;27.70;99.90;;;28.46;89.64;94910.00;2211799;54;26691;-61
2021/09/10 13:58:12;;;;;;;6.20;5.70;;;27.40;99.90;;;28.11;96.22;94908.00;2430714;54;26758;-60